sensor_id;sensor_type;location;lat;lon;timestamp;pressure;altitude;pressure_sealevel;temperature;humidity
68634;BME280;55625;47.072;22.192;2023-11-19T00:00:22;100202.25;;;2.13;100.00
68634;BME280;55625;47.072;22.192;2023-11-19T00:02:49;100195.03;;;2.12;100.00
68634;BME280;55625;47.072;22.192;2023-11-19T00:05:15;100206.22;;;2.08;100.00
68634;BME280;55625;47.072;22.192;2023-11-19T00:07:40;100202.22;;;2.09;100.00
68634;BME280;55625;47.072;22.192;2023-11-19T00:10:10;100213.03;;;2.11;100.00
68634;BME280;55625;47.072;22.192;2023-11-19T00:12:42;100216.59;;;2.08;100.00
68634;BME280;55625;47.072;22.192;2023-11-19T00:15:09;100215.81;;;2.07;100.00
68634;BME280;55625;47.072;22.192;2023-11-19T00:17:38;100211.00;;;2.08;100.00
68634;BME280;55625;47.072;22.192;2023-11-19T00:20:08;100209.00;;;2.08;100.00
68634;BME280;55625;47.072;22.192;2023-11-19T00:22:34;100203.00;;;2.06;100.00
68634;BME280;55625;47.072;22.192;2023-11-19T00:25:00;100208.59;;;2.06;100.00
68634;BME280;55625;47.072;22.192;2023-11-19T00:27:26;100202.19;;;2.06;100.00
68634;BME280;55625;47.072;22.192;2023-11-19T00:29:51;100195.78;;;2.05;100.00
68634;BME280;55625;47.072;22.192;2023-11-19T00:32:17;100185.81;;;2.08;100.00
68634;BME280;55625;47.072;22.192;2023-11-19T00:34:44;100180.97;;;2.01;100.00
68634;BME280;55625;47.072;22.192;2023-11-19T00:37:10;100197.69;;;1.94;100.00
68634;BME280;55625;47.072;22.192;2023-11-19T00:39:36;100195.59;;;1.84;100.00
68634;BME280;55625;47.072;22.192;2023-11-19T00:42:02;100200.69;;;1.78;100.00
68634;BME280;55625;47.072;22.192;2023-11-19T00:44:28;100195.88;;;1.75;100.00
68634;BME280;55625;47.072;22.192;2023-11-19T00:46:54;100196.28;;;1.77;100.00
68634;BME280;55625;47.072;22.192;2023-11-19T00:49:20;100197.09;;;1.78;100.00
68634;BME280;55625;47.072;22.192;2023-11-19T00:51:45;100186.66;;;1.75;100.00
68634;BME280;55625;47.072;22.192;2023-11-19T00:54:11;100178.66;;;1.73;100.00
68634;BME280;55625;47.072;22.192;2023-11-19T00:56:37;100174.66;;;1.74;100.00
68634;BME280;55625;47.072;22.192;2023-11-19T00:59:03;100178.63;;;1.70;100.00
68634;BME280;55625;47.072;22.192;2023-11-19T01:01:29;100177.44;;;1.71;100.00
68634;BME280;55625;47.072;22.192;2023-11-19T01:03:55;100179.38;;;1.67;100.00
68634;BME280;55625;47.072;22.192;2023-11-19T01:06:32;100181.75;;;1.65;100.00
68634;BME280;55625;47.072;22.192;2023-11-19T01:08:58;100186.50;;;1.61;100.00
68634;BME280;55625;47.072;22.192;2023-11-19T01:11:25;100184.47;;;1.58;100.00
68634;BME280;55625;47.072;22.192;2023-11-19T01:13:51;100188.09;;;1.58;100.00
68634;BME280;55625;47.072;22.192;2023-11-19T01:16:18;100184.06;;;1.55;100.00
68634;BME280;55625;47.072;22.192;2023-11-19T01:18:47;100183.25;;;1.55;100.00
68634;BME280;55625;47.072;22.192;2023-11-19T01:21:14;100184.78;;;1.52;100.00
68634;BME280;55625;47.072;22.192;2023-11-19T01:23:41;100181.59;;;1.50;100.00
68634;BME280;55625;47.072;22.192;2023-11-19T01:26:14;100178.31;;;1.45;100.00
68634;BME280;55625;47.072;22.192;2023-11-19T01:28:40;100179.88;;;1.42;100.00
68634;BME280;55625;47.072;22.192;2023-11-19T01:31:15;100186.25;;;1.39;100.00
68634;BME280;55625;47.072;22.192;2023-11-19T01:33:41;100181.78;;;1.35;100.00
68634;BME280;55625;47.072;22.192;2023-11-19T01:36:13;100172.53;;;1.27;100.00
68634;BME280;55625;47.072;22.192;2023-11-19T01:38:39;100175.28;;;1.23;100.00
68634;BME280;55625;47.072;22.192;2023-11-19T01:41:05;100160.84;;;1.21;100.00
68634;BME280;55625;47.072;22.192;2023-11-19T01:43:40;100161.19;;;1.16;100.00
68634;BME280;55625;47.072;22.192;2023-11-19T01:46:13;100170.66;;;1.08;100.00
68634;BME280;55625;47.072;22.192;2023-11-19T01:48:44;100168.59;;;1.02;100.00
68634;BME280;55625;47.072;22.192;2023-11-19T01:51:10;100162.53;;;0.96;100.00
68634;BME280;55625;47.072;22.192;2023-11-19T01:53:38;100172.09;;;0.95;100.00
68634;BME280;55625;47.072;22.192;2023-11-19T01:56:07;100159.31;;;0.94;100.00
68634;BME280;55625;47.072;22.192;2023-11-19T01:58:38;100173.28;;;0.94;100.00
68634;BME280;55625;47.072;22.192;2023-11-19T02:01:09;100179.97;;;0.89;100.00
68634;BME280;55625;47.072;22.192;2023-11-19T02:03:34;100181.53;;;0.87;100.00
68634;BME280;55625;47.072;22.192;2023-11-19T02:06:01;100176.66;;;0.80;100.00
68634;BME280;55625;47.072;22.192;2023-11-19T02:08:27;100175.81;;;0.76;100.00
68634;BME280;55625;47.072;22.192;2023-11-19T02:10:53;100180.09;;;0.70;100.00
68634;BME280;55625;47.072;22.192;2023-11-19T02:13:22;100189.72;;;0.73;100.00
68634;BME280;55625;47.072;22.192;2023-11-19T02:15:48;100183.69;;;0.71;100.00
68634;BME280;55625;47.072;22.192;2023-11-19T02:18:32;100180.84;;;0.67;100.00
68634;BME280;55625;47.072;22.192;2023-11-19T02:20:59;100173.22;;;0.64;100.00
68634;BME280;55625;47.072;22.192;2023-11-19T02:23:27;100186.75;;;0.62;100.00
68634;BME280;55625;47.072;22.192;2023-11-19T02:26:13;100193.88;;;0.59;100.00
68634;BME280;55625;47.072;22.192;2023-11-19T02:28:42;100181.47;;;0.57;100.00
68634;BME280;55625;47.072;22.192;2023-11-19T02:31:09;100176.22;;;0.52;100.00
68634;BME280;55625;47.072;22.192;2023-11-19T02:33:36;100176.97;;;0.49;100.00
68634;BME280;55625;47.072;22.192;2023-11-19T02:36:07;100175.34;;;0.48;100.00
68634;BME280;55625;47.072;22.192;2023-11-19T02:38:34;100170.09;;;0.43;100.00
68634;BME280;55625;47.072;22.192;2023-11-19T02:41:04;100162.53;;;0.43;100.00
68634;BME280;55625;47.072;22.192;2023-11-19T02:43:32;100158.50;;;0.41;100.00
68634;BME280;55625;47.072;22.192;2023-11-19T02:46:04;100160.84;;;0.39;100.00
68634;BME280;55625;47.072;22.192;2023-11-19T02:48:36;100149.59;;;0.32;100.00
68634;BME280;55625;47.072;22.192;2023-11-19T02:51:02;100158.75;;;0.32;100.00
68634;BME280;55625;47.072;22.192;2023-11-19T02:53:35;100158.69;;;0.28;100.00
68634;BME280;55625;47.072;22.192;2023-11-19T02:56:01;100166.63;;;0.26;100.00
68634;BME280;55625;47.072;22.192;2023-11-19T02:58:28;100158.25;;;0.26;100.00
68634;BME280;55625;47.072;22.192;2023-11-19T03:00:55;100153.47;;;0.27;100.00
68634;BME280;55625;47.072;22.192;2023-11-19T03:03:25;100141.88;;;0.25;100.00
68634;BME280;55625;47.072;22.192;2023-11-19T03:05:59;100145.78;;;0.20;100.00
68634;BME280;55625;47.072;22.192;2023-11-19T03:08:25;100150.50;;;0.16;100.00
68634;BME280;55625;47.072;22.192;2023-11-19T03:10:50;100142.09;;;0.13;100.00
68634;BME280;55625;47.072;22.192;2023-11-19T03:13:17;100142.03;;;0.09;100.00
68634;BME280;55625;47.072;22.192;2023-11-19T03:15:43;100150.78;;;0.08;100.00
68634;BME280;55625;47.072;22.192;2023-11-19T03:18:09;100143.22;;;0.08;100.00
68634;BME280;55625;47.072;22.192;2023-11-19T03:20:35;100127.28;;;0.09;100.00
68634;BME280;55625;47.072;22.192;2023-11-19T03:23:01;100127.66;;;0.07;100.00
68634;BME280;55625;47.072;22.192;2023-11-19T03:25:27;100124.84;;;0.07;100.00
68634;BME280;55625;47.072;22.192;2023-11-19T03:27:59;100131.63;;;0.06;100.00
68634;BME280;55625;47.072;22.192;2023-11-19T03:30:26;100132.38;;;0.03;100.00
68634;BME280;55625;47.072;22.192;2023-11-19T03:32:55;100121.97;;;0.00;100.00
68634;BME280;55625;47.072;22.192;2023-11-19T03:35:21;100113.88;;;-0.05;100.00
68634;BME280;55625;47.072;22.192;2023-11-19T03:37:47;100106.63;;;-0.10;100.00
68634;BME280;55625;47.072;22.192;2023-11-19T03:40:13;100120.09;;;-0.15;100.00
68634;BME280;55625;47.072;22.192;2023-11-19T03:42:40;100125.59;;;-0.19;100.00
68634;BME280;55625;47.072;22.192;2023-11-19T03:45:09;100127.41;;;-0.30;100.00
68634;BME280;55625;47.072;22.192;2023-11-19T03:47:35;100128.06;;;-0.37;100.00
68634;BME280;55625;47.072;22.192;2023-11-19T03:50:02;100126.06;;;-0.36;100.00
68634;BME280;55625;47.072;22.192;2023-11-19T03:52:28;100112.13;;;-0.36;100.00
68634;BME280;55625;47.072;22.192;2023-11-19T03:54:55;100102.97;;;-0.37;100.00
68634;BME280;55625;47.072;22.192;2023-11-19T03:57:21;100097.31;;;-0.40;100.00
68634;BME280;55625;47.072;22.192;2023-11-19T03:59:47;100108.09;;;-0.39;100.00
68634;BME280;55625;47.072;22.192;2023-11-19T04:02:13;100113.25;;;-0.41;100.00
68634;BME280;55625;47.072;22.192;2023-11-19T04:04:39;100123.16;;;-0.43;100.00
68634;BME280;55625;47.072;22.192;2023-11-19T04:07:05;100124.34;;;-0.44;100.00
68634;BME280;55625;47.072;22.192;2023-11-19T04:09:32;100123.53;;;-0.45;100.00
68634;BME280;55625;47.072;22.192;2023-11-19T04:12:03;100105.63;;;-0.44;100.00
68634;BME280;55625;47.072;22.192;2023-11-19T04:14:29;100103.56;;;-0.47;100.00
68634;BME280;55625;47.072;22.192;2023-11-19T04:16:55;100103.56;;;-0.47;100.00
68634;BME280;55625;47.072;22.192;2023-11-19T04:19:21;100111.50;;;-0.49;100.00
68634;BME280;55625;47.072;22.192;2023-11-19T04:21:47;100098.31;;;-0.52;100.00
68634;BME280;55625;47.072;22.192;2023-11-19T04:24:13;100086.72;;;-0.54;100.00
68634;BME280;55625;47.072;22.192;2023-11-19T04:26:44;100081.97;;;-0.53;100.00
68634;BME280;55625;47.072;22.192;2023-11-19T04:29:15;100072.78;;;-0.54;100.00
68634;BME280;55625;47.072;22.192;2023-11-19T04:31:45;100069.19;;;-0.54;100.00
68634;BME280;55625;47.072;22.192;2023-11-19T04:34:12;100071.13;;;-0.58;100.00
68634;BME280;55625;47.072;22.192;2023-11-19T04:36:38;100062.16;;;-0.68;100.00
68634;BME280;55625;47.072;22.192;2023-11-19T04:39:05;100060.19;;;-0.67;100.00
68634;BME280;55625;47.072;22.192;2023-11-19T04:41:35;100065.75;;;-0.67;100.00
68634;BME280;55625;47.072;22.192;2023-11-19T04:44:02;100080.81;;;-0.72;100.00
68634;BME280;55625;47.072;22.192;2023-11-19T04:46:27;100072.38;;;-0.75;100.00
68634;BME280;55625;47.072;22.192;2023-11-19T04:48:53;100067.56;;;-0.78;100.00
68634;BME280;55625;47.072;22.192;2023-11-19T04:51:19;100075.09;;;-0.79;100.00
68634;BME280;55625;47.072;22.192;2023-11-19T04:53:45;100080.69;;;-0.79;100.00
68634;BME280;55625;47.072;22.192;2023-11-19T04:56:11;100082.97;;;-0.84;100.00
68634;BME280;55625;47.072;22.192;2023-11-19T04:58:37;100094.91;;;-0.84;100.00
68634;BME280;55625;47.072;22.192;2023-11-19T05:01:04;100087.72;;;-0.85;100.00
68634;BME280;55625;47.072;22.192;2023-11-19T05:03:31;100084.56;;;-0.83;100.00
68634;BME280;55625;47.072;22.192;2023-11-19T05:05:58;100085.38;;;-0.83;100.00
68634;BME280;55625;47.072;22.192;2023-11-19T05:08:24;100092.19;;;-0.80;100.00
68634;BME280;55625;47.072;22.192;2023-11-19T05:10:49;100093.81;;;-0.79;100.00
68634;BME280;55625;47.072;22.192;2023-11-19T05:13:15;100093.06;;;-0.76;100.00
68634;BME280;55625;47.072;22.192;2023-11-19T05:15:42;100097.47;;;-0.75;100.00
68634;BME280;55625;47.072;22.192;2023-11-19T05:18:08;100099.44;;;-0.76;100.00
68634;BME280;55625;47.072;22.192;2023-11-19T05:20:34;100094.25;;;-0.77;100.00
68634;BME280;55625;47.072;22.192;2023-11-19T05:23:00;100109.34;;;-0.78;100.00
68634;BME280;55625;47.072;22.192;2023-11-19T05:25:27;100124.88;;;-0.77;100.00
68634;BME280;55625;47.072;22.192;2023-11-19T05:27:53;100122.09;;;-0.77;100.00
68634;BME280;55625;47.072;22.192;2023-11-19T05:30:19;100125.31;;;-0.75;100.00
68634;BME280;55625;47.072;22.192;2023-11-19T05:32:45;100116.97;;;-0.75;100.00
68634;BME280;55625;47.072;22.192;2023-11-19T05:35:11;100100.56;;;-0.80;100.00
68634;BME280;55625;47.072;22.192;2023-11-19T05:37:37;100104.50;;;-0.81;100.00
68634;BME280;55625;47.072;22.192;2023-11-19T05:40:05;100106.13;;;-0.80;100.00
68634;BME280;55625;47.072;22.192;2023-11-19T05:42:38;100111.69;;;-0.80;100.00
68634;BME280;55625;47.072;22.192;2023-11-19T05:45:05;100108.97;;;-0.77;100.00
68634;BME280;55625;47.072;22.192;2023-11-19T05:47:33;100097.41;;;-0.79;100.00
68634;BME280;55625;47.072;22.192;2023-11-19T05:49:59;100098.19;;;-0.78;100.00
68634;BME280;55625;47.072;22.192;2023-11-19T05:52:25;100092.63;;;-0.78;100.00
68634;BME280;55625;47.072;22.192;2023-11-19T05:54:51;100094.16;;;-0.81;100.00
68634;BME280;55625;47.072;22.192;2023-11-19T05:57:19;100101.72;;;-0.81;100.00
68634;BME280;55625;47.072;22.192;2023-11-19T05:59:49;100108.09;;;-0.81;100.00
68634;BME280;55625;47.072;22.192;2023-11-19T06:02:16;100107.38;;;-0.78;100.00
68634;BME280;55625;47.072;22.192;2023-11-19T06:04:42;100096.66;;;-0.76;100.00
68634;BME280;55625;47.072;22.192;2023-11-19T06:07:10;100091.50;;;-0.74;100.00
68634;BME280;55625;47.072;22.192;2023-11-19T06:09:35;100092.44;;;-0.66;100.00
68634;BME280;55625;47.072;22.192;2023-11-19T06:12:01;100094.50;;;-0.63;100.00
68634;BME280;55625;47.072;22.192;2023-11-19T06:14:28;100095.84;;;-0.57;100.00
68634;BME280;55625;47.072;22.192;2023-11-19T06:16:53;100104.69;;;-0.51;100.00
68634;BME280;55625;47.072;22.192;2023-11-19T06:19:19;100099.25;;;-0.44;100.00
68634;BME280;55625;47.072;22.192;2023-11-19T06:21:45;100095.41;;;-0.36;100.00
68634;BME280;55625;47.072;22.192;2023-11-19T06:24:11;100098.72;;;-0.30;100.00
68634;BME280;55625;47.072;22.192;2023-11-19T06:26:37;100096.78;;;-0.26;100.00
68634;BME280;55625;47.072;22.192;2023-11-19T06:29:03;100101.19;;;-0.25;100.00
68634;BME280;55625;47.072;22.192;2023-11-19T06:31:28;100094.81;;;-0.26;100.00
68634;BME280;55625;47.072;22.192;2023-11-19T06:33:54;100088.84;;;-0.24;100.00
68634;BME280;55625;47.072;22.192;2023-11-19T06:36:20;100093.31;;;-0.20;100.00
68634;BME280;55625;47.072;22.192;2023-11-19T06:38:47;100096.16;;;-0.16;100.00
68634;BME280;55625;47.072;22.192;2023-11-19T06:41:13;100099.38;;;-0.14;100.00
68634;BME280;55625;47.072;22.192;2023-11-19T06:43:38;100100.25;;;-0.10;100.00
68634;BME280;55625;47.072;22.192;2023-11-19T06:46:04;100107.44;;;-0.09;100.00
68634;BME280;55625;47.072;22.192;2023-11-19T06:48:34;100111.84;;;-0.08;100.00
68634;BME280;55625;47.072;22.192;2023-11-19T06:51:00;100104.69;;;-0.06;100.00
68634;BME280;55625;47.072;22.192;2023-11-19T06:53:30;100095.22;;;-0.01;100.00
68634;BME280;55625;47.072;22.192;2023-11-19T06:55:56;100101.69;;;0.03;100.00
68634;BME280;55625;47.072;22.192;2023-11-19T06:58:22;100104.16;;;0.08;100.00
68634;BME280;55625;47.072;22.192;2023-11-19T07:00:48;100113.38;;;0.12;100.00
68634;BME280;55625;47.072;22.192;2023-11-19T07:03:15;100130.19;;;0.16;100.00
68634;BME280;55625;47.072;22.192;2023-11-19T07:05:41;100131.84;;;0.20;100.00
68634;BME280;55625;47.072;22.192;2023-11-19T07:08:07;100135.88;;;0.23;100.00
68634;BME280;55625;47.072;22.192;2023-11-19T07:10:33;100141.56;;;0.30;100.00
68634;BME280;55625;47.072;22.192;2023-11-19T07:12:59;100140.03;;;0.33;100.00
68634;BME280;55625;47.072;22.192;2023-11-19T07:15:25;100140.88;;;0.37;100.00
68634;BME280;55625;47.072;22.192;2023-11-19T07:17:51;100137.72;;;0.38;100.00
68634;BME280;55625;47.072;22.192;2023-11-19T07:20:20;100133.00;;;0.42;100.00
68634;BME280;55625;47.072;22.192;2023-11-19T07:22:46;100130.69;;;0.48;100.00
68634;BME280;55625;47.072;22.192;2023-11-19T07:25:14;100120.75;;;0.50;100.00
68634;BME280;55625;47.072;22.192;2023-11-19T07:27:40;100123.59;;;0.54;100.00
68634;BME280;55625;47.072;22.192;2023-11-19T07:30:07;100129.22;;;0.57;100.00
68634;BME280;55625;47.072;22.192;2023-11-19T07:32:35;100135.31;;;0.63;100.00
68634;BME280;55625;47.072;22.192;2023-11-19T07:35:01;100124.19;;;0.67;100.00
68634;BME280;55625;47.072;22.192;2023-11-19T07:37:28;100127.03;;;0.70;100.00
68634;BME280;55625;47.072;22.192;2023-11-19T07:39:53;100130.63;;;0.71;100.00
68634;BME280;55625;47.072;22.192;2023-11-19T07:42:19;100141.91;;;0.78;100.00
68634;BME280;55625;47.072;22.192;2023-11-19T07:44:45;100149.16;;;0.82;100.00
68634;BME280;55625;47.072;22.192;2023-11-19T07:47:11;100156.00;;;0.88;100.00
68634;BME280;55625;47.072;22.192;2023-11-19T07:49:38;100156.50;;;0.94;100.00
68634;BME280;55625;47.072;22.192;2023-11-19T07:52:05;100158.22;;;1.02;100.00
68634;BME280;55625;47.072;22.192;2023-11-19T07:54:30;100134.72;;;1.07;100.00
68634;BME280;55625;47.072;22.192;2023-11-19T07:56:56;100132.34;;;1.09;100.00
68634;BME280;55625;47.072;22.192;2023-11-19T07:59:22;100143.59;;;1.16;100.00
68634;BME280;55625;47.072;22.192;2023-11-19T08:01:48;100132.53;;;1.23;100.00
68634;BME280;55625;47.072;22.192;2023-11-19T08:04:14;100133.81;;;1.29;100.00
68634;BME280;55625;47.072;22.192;2023-11-19T08:06:40;100137.44;;;1.33;100.00
68634;BME280;55625;47.072;22.192;2023-11-19T08:09:06;100137.53;;;1.40;100.00
68634;BME280;55625;47.072;22.192;2023-11-19T08:11:33;100143.56;;;1.46;100.00
68634;BME280;55625;47.072;22.192;2023-11-19T08:13:59;100142.38;;;1.47;100.00
68634;BME280;55625;47.072;22.192;2023-11-19T08:16:25;100131.66;;;1.52;100.00
68634;BME280;55625;47.072;22.192;2023-11-19T08:18:50;100141.72;;;1.57;100.00
68634;BME280;55625;47.072;22.192;2023-11-19T08:21:16;100140.16;;;1.60;100.00
68634;BME280;55625;47.072;22.192;2023-11-19T08:23:42;100136.59;;;1.63;100.00
68634;BME280;55625;47.072;22.192;2023-11-19T08:26:08;100139.81;;;1.65;100.00
68634;BME280;55625;47.072;22.192;2023-11-19T08:28:34;100148.22;;;1.68;100.00
68634;BME280;55625;47.072;22.192;2023-11-19T08:31:00;100147.06;;;1.73;100.00
68634;BME280;55625;47.072;22.192;2023-11-19T08:33:27;100135.53;;;1.78;100.00
68634;BME280;55625;47.072;22.192;2023-11-19T08:35:52;100151.16;;;1.82;100.00
68634;BME280;55625;47.072;22.192;2023-11-19T08:38:18;100156.44;;;1.88;100.00
68634;BME280;55625;47.072;22.192;2023-11-19T08:40:44;100139.69;;;1.91;100.00
68634;BME280;55625;47.072;22.192;2023-11-19T08:43:10;100138.94;;;1.98;100.00
68634;BME280;55625;47.072;22.192;2023-11-19T08:45:36;100136.16;;;2.01;100.00
68634;BME280;55625;47.072;22.192;2023-11-19T08:48:02;100134.63;;;2.07;100.00
68634;BME280;55625;47.072;22.192;2023-11-19T08:50:28;100128.25;;;2.10;100.00
68634;BME280;55625;47.072;22.192;2023-11-19T08:52:53;100131.91;;;2.14;100.00
68634;BME280;55625;47.072;22.192;2023-11-19T08:55:19;100123.97;;;2.24;100.00
68634;BME280;55625;47.072;22.192;2023-11-19T08:57:45;100108.84;;;2.32;100.00
68634;BME280;55625;47.072;22.192;2023-11-19T09:00:12;100108.06;;;2.35;100.00
68634;BME280;55625;47.072;22.192;2023-11-19T09:02:40;100105.63;;;2.30;100.00
68634;BME280;55625;47.072;22.192;2023-11-19T09:05:06;100097.22;;;2.30;100.00
68634;BME280;55625;47.072;22.192;2023-11-19T09:07:35;100090.81;;;2.29;100.00
68634;BME280;55625;47.072;22.192;2023-11-19T09:10:01;100088.81;;;2.30;100.00
68634;BME280;55625;47.072;22.192;2023-11-19T09:12:27;100086.47;;;2.35;100.00
68634;BME280;55625;47.072;22.192;2023-11-19T09:14:53;100090.09;;;2.43;100.00
68634;BME280;55625;47.072;22.192;2023-11-19T09:17:19;100077.38;;;2.49;100.00
68634;BME280;55625;47.072;22.192;2023-11-19T09:19:44;100059.03;;;2.62;100.00
68634;BME280;55625;47.072;22.192;2023-11-19T09:22:11;100065.16;;;2.86;100.00
68634;BME280;55625;47.072;22.192;2023-11-19T09:24:37;100061.25;;;3.08;100.00
68634;BME280;55625;47.072;22.192;2023-11-19T09:27:03;100048.88;;;3.27;100.00
68634;BME280;55625;47.072;22.192;2023-11-19T09:29:32;100063.72;;;3.34;100.00
68634;BME280;55625;47.072;22.192;2023-11-19T09:31:58;100097.44;;;3.41;100.00
68634;BME280;55625;47.072;22.192;2023-11-19T09:34:24;100099.84;;;3.54;100.00
68634;BME280;55625;47.072;22.192;2023-11-19T09:36:50;100094.66;;;3.52;100.00
68634;BME280;55625;47.072;22.192;2023-11-19T09:39:15;100099.84;;;3.50;100.00
68634;BME280;55625;47.072;22.192;2023-11-19T09:41:46;100091.03;;;3.55;100.00
68634;BME280;55625;47.072;22.192;2023-11-19T09:44:12;100099.88;;;3.61;100.00
68634;BME280;55625;47.072;22.192;2023-11-19T09:46:41;100091.47;;;3.64;100.00
68634;BME280;55625;47.072;22.192;2023-11-19T09:49:08;100057.00;;;3.71;100.00
68634;BME280;55625;47.072;22.192;2023-11-19T09:51:36;100036.53;;;3.67;100.00
68634;BME280;55625;47.072;22.192;2023-11-19T09:54:02;100029.31;;;3.62;100.00
68634;BME280;55625;47.072;22.192;2023-11-19T09:56:33;100026.13;;;3.67;100.00
68634;BME280;55625;47.072;22.192;2023-11-19T09:59:02;100034.97;;;3.73;100.00
68634;BME280;55625;47.072;22.192;2023-11-19T10:01:28;100042.97;;;3.78;100.00
68634;BME280;55625;47.072;22.192;2023-11-19T10:03:55;100028.53;;;3.83;100.00
68634;BME280;55625;47.072;22.192;2023-11-19T10:06:21;100023.72;;;3.84;100.00
68634;BME280;55625;47.072;22.192;2023-11-19T10:08:48;100014.91;;;3.85;100.00
68634;BME280;55625;47.072;22.192;2023-11-19T10:11:14;100013.69;;;3.86;100.00
68634;BME280;55625;47.072;22.192;2023-11-19T10:13:41;100030.94;;;3.81;100.00
68634;BME280;55625;47.072;22.192;2023-11-19T10:16:15;100035.34;;;3.79;100.00
68634;BME280;55625;47.072;22.192;2023-11-19T10:18:48;100028.94;;;3.82;100.00
68634;BME280;55625;47.072;22.192;2023-11-19T10:21:18;100031.34;;;3.87;100.00
68634;BME280;55625;47.072;22.192;2023-11-19T10:23:57;100010.88;;;3.90;100.00
68634;BME280;55625;47.072;22.192;2023-11-19T10:26:26;100010.50;;;3.88;100.00
68634;BME280;55625;47.072;22.192;2023-11-19T10:28:52;100018.50;;;3.82;100.00
68634;BME280;55625;47.072;22.192;2023-11-19T10:31:20;100023.31;;;3.85;100.00
68634;BME280;55625;47.072;22.192;2023-11-19T10:33:54;100029.34;;;3.80;100.00
68634;BME280;55625;47.072;22.192;2023-11-19T10:36:20;100026.94;;;3.82;100.00
68634;BME280;55625;47.072;22.192;2023-11-19T10:38:56;100028.94;;;3.85;100.00
68634;BME280;55625;47.072;22.192;2023-11-19T10:41:29;100041.78;;;3.90;100.00
68634;BME280;55625;47.072;22.192;2023-11-19T10:43:57;100042.16;;;3.92;100.00
68634;BME280;55625;47.072;22.192;2023-11-19T10:46:22;100021.72;;;3.95;100.00
68634;BME280;55625;47.072;22.192;2023-11-19T10:48:49;100014.50;;;3.97;100.00
68634;BME280;55625;47.072;22.192;2023-11-19T10:51:19;100028.97;;;3.99;100.00
68634;BME280;55625;47.072;22.192;2023-11-19T10:53:49;100026.13;;;4.10;100.00
68634;BME280;55625;47.072;22.192;2023-11-19T10:56:20;100030.94;;;4.34;100.00
68634;BME280;55625;47.072;22.192;2023-11-19T10:58:51;100038.13;;;4.39;100.00
68634;BME280;55625;47.072;22.192;2023-11-19T11:01:20;100041.38;;;4.30;100.00
68634;BME280;55625;47.072;22.192;2023-11-19T11:03:50;100049.41;;;4.32;100.00
68634;BME280;55625;47.072;22.192;2023-11-19T11:06:17;100043.75;;;4.28;100.00
68634;BME280;55625;47.072;22.192;2023-11-19T11:08:46;100041.38;;;4.20;100.00
68634;BME280;55625;47.072;22.192;2023-11-19T11:11:15;100038.97;;;4.08;100.00
68634;BME280;55625;47.072;22.192;2023-11-19T11:13:43;100037.38;;;4.10;100.00
68634;BME280;55625;47.072;22.192;2023-11-19T11:16:10;100047.78;;;4.13;100.00
68634;BME280;55625;47.072;22.192;2023-11-19T11:18:36;100027.75;;;4.11;100.00
68634;BME280;55625;47.072;22.192;2023-11-19T11:21:16;100022.91;;;4.12;100.00
68634;BME280;55625;47.072;22.192;2023-11-19T11:24:24;100008.47;;;4.10;100.00
68634;BME280;55625;47.072;22.192;2023-11-19T11:30:49;99990.84;;;4.02;100.00
68634;BME280;55625;47.072;22.192;2023-11-19T11:36:20;100006.88;;;4.05;100.00
68634;BME280;55625;47.072;22.192;2023-11-19T11:38:49;100016.91;;;4.02;100.00
68634;BME280;55625;47.072;22.192;2023-11-19T11:41:24;100010.50;;;3.98;100.00
68634;BME280;55625;47.072;22.192;2023-11-19T11:43:54;100000.06;;;3.95;100.00
68634;BME280;55625;47.072;22.192;2023-11-19T11:49:05;99996.44;;;3.95;100.00
68634;BME280;55625;47.072;22.192;2023-11-19T11:57:10;99988.81;;;3.92;100.00
68634;BME280;55625;47.072;22.192;2023-11-19T11:59:49;99977.19;;;3.93;100.00
68634;BME280;55625;47.072;22.192;2023-11-19T12:02:21;99970.78;;;3.93;100.00
68634;BME280;55625;47.072;22.192;2023-11-19T12:04:50;99964.34;;;3.96;100.00
68634;BME280;55625;47.072;22.192;2023-11-19T12:07:22;99959.53;;;3.96;100.00
68634;BME280;55625;47.072;22.192;2023-11-19T12:09:53;99957.97;;;3.99;100.00
68634;BME280;55625;47.072;22.192;2023-11-19T12:12:27;99951.53;;;4.02;100.00
68634;BME280;55625;47.072;22.192;2023-11-19T12:20:04;99925.44;;;3.94;100.00
68634;BME280;55625;47.072;22.192;2023-11-19T12:22:33;99915.03;;;3.88;100.00
68634;BME280;55625;47.072;22.192;2023-11-19T12:25:00;99912.22;;;3.91;100.00
68634;BME280;55625;47.072;22.192;2023-11-19T12:27:28;99925.47;;;3.87;100.00
68634;BME280;55625;47.072;22.192;2023-11-19T12:29:54;99917.84;;;3.84;100.00
68634;BME280;55625;47.072;22.192;2023-11-19T12:32:19;99927.06;;;3.92;100.00
68634;BME280;55625;47.072;22.192;2023-11-19T12:34:45;99924.25;;;3.88;100.00
68634;BME280;55625;47.072;22.192;2023-11-19T12:37:11;99932.28;;;3.86;100.00
68634;BME280;55625;47.072;22.192;2023-11-19T12:39:37;99932.31;;;3.79;100.00
68634;BME280;55625;47.072;22.192;2023-11-19T12:42:03;99925.50;;;3.73;100.00
68634;BME280;55625;47.072;22.192;2023-11-19T12:44:29;99913.06;;;3.74;100.00
68634;BME280;55625;47.072;22.192;2023-11-19T12:47:03;99915.47;;;3.72;100.00
68634;BME280;55625;47.072;22.192;2023-11-19T12:49:30;99909.88;;;3.68;100.00
68634;BME280;55625;47.072;22.192;2023-11-19T12:51:56;99903.84;;;3.63;100.00
68634;BME280;55625;47.072;22.192;2023-11-19T12:54:42;99911.44;;;3.66;100.00
68634;BME280;55625;47.072;22.192;2023-11-19T12:57:07;99912.66;;;3.61;100.00
68634;BME280;55625;47.072;22.192;2023-11-19T12:59:33;99918.69;;;3.60;100.00